Time;durP1;ratioP1;P1;durP2;ratioP2;P2;SDS_P1;SDS_P2;PMS_P1;PMS_P2;Temp;Humidity;BMP_temperature;BMP_pressure;BME280_temperature;BME280_humidity;BME280_pressure;Samples;Min_cycle;Max_cycle;Signal;HPM_P1;HPM_P2
2022/07/09 00:02:46;;;;;;;;;;;15.50;66.40;;;;;;4136841;28;19924;-91
2022/07/09 00:05:42;;;;;;;;;;;15.40;66.40;;;;;;4081851;29;19918;-92
2022/07/09 00:08:04;;;;;;;;;;;15.40;66.60;;;;;;4086993;29;19917;-93
2022/07/09 00:13:50;;;;;;;;;;;15.30;66.40;;;;;;4037312;29;19912;-92
2022/07/09 00:16:24;;;;;;;;;;;15.40;66.70;;;;;;4034123;29;20061;-92
2022/07/09 00:19:14;;;;;;;;;;;15.40;66.90;;;;;;4036719;29;20425;-94
2022/07/09 00:21:38;;;;;;;;;;;15.40;67.00;;;;;;4039276;29;19908;-92
2022/07/09 00:24:05;;;;;;;;;;;15.40;67.00;;;;;;4026944;29;19908;-92
2022/07/09 00:26:34;;;;;;;;;;;15.40;67.20;;;;;;4020552;29;19959;-92
2022/07/09 00:29:33;;;;;;;;;;;15.40;66.80;;;;;;4021185;29;19956;-93
2022/07/09 00:32:03;;;;;;;;;;;15.50;66.70;;;;;;3981781;29;19921;-93
2022/07/09 00:34:26;;;;;;;;;;;15.30;67.60;;;;;;3988907;29;19914;-92
2022/07/09 00:36:58;;;;;;;;;;;15.40;68.00;;;;;;4039484;29;19911;-92
2022/07/09 00:39:32;;;;;;;;;;;15.40;67.70;;;;;;4048931;29;19915;-91
2022/07/09 00:42:04;;;;;;;;;;;15.40;68.10;;;;;;4045374;29;19915;-92
2022/07/09 00:44:27;;;;;;;;;;;15.30;68.20;;;;;;4045535;29;20138;-91
2022/07/09 00:46:48;;;;;;;;;;;15.30;68.50;;;;;;4044520;29;19926;-91
2022/07/09 00:49:11;;;;;;;;;;;15.30;69.10;;;;;;4044424;29;20103;-92
2022/07/09 00:51:35;;;;;;;;;;;15.30;69.00;;;;;;4096176;28;19906;-90
2022/07/09 00:53:57;;;;;;;;;;;15.30;69.10;;;;;;4096790;28;19915;-91
2022/07/09 00:56:18;;;;;;;;;;;15.20;69.20;;;;;;4097840;28;20378;-93
2022/07/09 00:58:39;;;;;;;;;;;15.30;69.30;;;;;;4097476;28;19910;-92
2022/07/09 01:01:00;;;;;;;;;;;15.30;70.00;;;;;;4083999;29;19946;-92
2022/07/09 01:03:21;;;;;;;;;;;15.20;69.70;;;;;;4092989;28;19906;-91
2022/07/09 01:05:42;;;;;;;;;;;15.20;69.70;;;;;;4098052;28;20013;-92
2022/07/09 01:08:04;;;;;;;;;;;15.20;70.30;;;;;;4096656;28;19931;-90
2022/07/09 01:10:25;;;;;;;;;;;15.20;69.80;;;;;;4179724;28;19913;-91
2022/07/09 01:12:46;;;;;;;;;;;15.20;69.90;;;;;;4160665;28;20403;-91
2022/07/09 01:15:07;;;;;;;;;;;15.20;70.50;;;;;;4175805;28;19909;-91
2022/07/09 01:17:28;;;;;;;;;;;15.20;70.30;;;;;;4159086;28;20022;-90
2022/07/09 01:19:48;;;;;;;;;;;15.20;70.60;;;;;;4164331;28;19917;-92
2022/07/09 01:22:09;;;;;;;;;;;15.20;70.50;;;;;;4161490;28;19912;-90
2022/07/09 01:24:30;;;;;;;;;;;15.20;70.60;;;;;;4166189;28;19964;-90
2022/07/09 01:26:52;;;;;;;;;;;15.20;70.60;;;;;;4160176;28;19945;-92
2022/07/09 01:29:13;;;;;;;;;;;15.20;70.90;;;;;;4167690;28;19912;-92
2022/07/09 01:31:34;;;;;;;;;;;15.20;70.80;;;;;;4161900;28;20317;-90
2022/07/09 01:33:55;;;;;;;;;;;15.20;71.50;;;;;;4164870;28;20369;-90
2022/07/09 01:36:16;;;;;;;;;;;15.20;71.60;;;;;;4161411;28;19909;-91
2022/07/09 01:38:37;;;;;;;;;;;15.20;72.10;;;;;;4164674;28;19917;-90
2022/07/09 01:40:58;;;;;;;;;;;15.20;72.60;;;;;;4172842;28;19913;-90
2022/07/09 01:43:19;;;;;;;;;;;15.20;71.90;;;;;;4170075;28;19966;-91
2022/07/09 01:45:40;;;;;;;;;;;15.20;72.10;;;;;;4174786;28;19944;-92
2022/07/09 01:48:01;;;;;;;;;;;15.20;72.70;;;;;;4173845;28;19974;-90
2022/07/09 01:50:22;;;;;;;;;;;15.10;72.70;;;;;;4167516;28;19908;-91
2022/07/09 01:52:43;;;;;;;;;;;15.20;72.50;;;;;;4154737;28;19909;-91
2022/07/09 01:55:04;;;;;;;;;;;15.20;73.40;;;;;;4171602;28;20369;-90
2022/07/09 01:57:25;;;;;;;;;;;15.10;72.50;;;;;;4172034;28;19904;-92
2022/07/09 01:59:46;;;;;;;;;;;15.20;72.60;;;;;;4178667;28;20434;-91
2022/07/09 02:02:07;;;;;;;;;;;15.20;72.60;;;;;;4155000;28;19905;-93
2022/07/09 02:04:28;;;;;;;;;;;15.20;72.00;;;;;;4163383;28;19909;-91
2022/07/09 02:06:48;;;;;;;;;;;15.20;72.60;;;;;;4161617;28;19905;-89
2022/07/09 02:09:09;;;;;;;;;;;15.20;72.50;;;;;;4178352;28;20280;-92
2022/07/09 02:11:30;;;;;;;;;;;15.20;72.50;;;;;;4175541;28;20516;-92
2022/07/09 02:13:51;;;;;;;;;;;15.20;72.70;;;;;;4165764;28;19909;-90
2022/07/09 02:16:12;;;;;;;;;;;15.20;73.70;;;;;;4162288;28;20537;-92
2022/07/09 02:18:33;;;;;;;;;;;15.20;72.90;;;;;;4174621;28;19905;-92
2022/07/09 02:20:55;;;;;;;;;;;15.20;73.20;;;;;;4172460;28;19909;-90
2022/07/09 02:23:16;;;;;;;;;;;15.20;71.80;;;;;;4160034;28;19909;-91
2022/07/09 02:25:37;;;;;;;;;;;15.30;71.40;;;;;;4168256;28;19909;-91
2022/07/09 02:27:58;;;;;;;;;;;15.30;71.30;;;;;;4157871;28;19959;-91
2022/07/09 02:30:19;;;;;;;;;;;15.30;70.90;;;;;;4176899;28;19909;-91
2022/07/09 02:32:40;;;;;;;;;;;15.30;71.20;;;;;;4168212;28;19951;-91
2022/07/09 02:35:03;;;;;;;;;;;15.30;70.90;;;;;;4168308;28;19996;-93
2022/07/09 02:37:24;;;;;;;;;;;15.30;72.10;;;;;;4165377;28;19920;-90
2022/07/09 02:39:45;;;;;;;;;;;15.30;71.70;;;;;;4177820;28;20273;-92
2022/07/09 02:42:06;;;;;;;;;;;15.30;71.60;;;;;;4164319;28;19905;-91
2022/07/09 02:44:27;;;;;;;;;;;15.20;71.60;;;;;;4166300;28;20022;-90
2022/07/09 02:46:48;;;;;;;;;;;15.30;72.00;;;;;;4167740;28;20001;-93
2022/07/09 02:49:10;;;;;;;;;;;15.30;71.90;;;;;;4153998;28;19905;-90
2022/07/09 02:51:31;;;;;;;;;;;15.30;71.80;;;;;;4168169;28;19977;-90
2022/07/09 02:53:52;;;;;;;;;;;15.30;72.20;;;;;;4153240;28;19921;-92
2022/07/09 02:56:12;;;;;;;;;;;15.30;72.10;;;;;;4159728;28;20088;-91
2022/07/09 02:58:33;;;;;;;;;;;15.30;72.10;;;;;;4153957;28;19983;-90
2022/07/09 03:00:54;;;;;;;;;;;15.30;72.30;;;;;;4175566;28;19909;-93
2022/07/09 03:03:16;;;;;;;;;;;15.30;71.90;;;;;;4160299;28;19915;-91
2022/07/09 03:05:37;;;;;;;;;;;15.30;72.30;;;;;;4153718;28;19928;-91
2022/07/09 03:07:58;;;;;;;;;;;15.30;72.30;;;;;;4175187;28;19909;-93
2022/07/09 03:10:19;;;;;;;;;;;15.30;72.20;;;;;;4161584;28;19939;-91
2022/07/09 03:12:40;;;;;;;;;;;15.30;72.20;;;;;;4156184;28;19984;-91
2022/07/09 03:15:01;;;;;;;;;;;15.30;72.50;;;;;;4167397;28;19904;-90
2022/07/09 03:17:22;;;;;;;;;;;15.30;72.50;;;;;;4172455;28;20280;-91
2022/07/09 03:19:42;;;;;;;;;;;15.30;72.80;;;;;;4159223;28;19917;-92
2022/07/09 03:22:03;;;;;;;;;;;15.30;73.00;;;;;;4153661;28;20106;-90
2022/07/09 03:24:27;;;;;;;;;;;15.40;73.10;;;;;;4160391;28;20007;-92
2022/07/09 03:26:49;;;;;;;;;;;15.30;73.40;;;;;;4158306;28;19996;-92
2022/07/09 03:29:09;;;;;;;;;;;15.40;73.10;;;;;;4164917;28;19909;-90
2022/07/09 03:31:30;;;;;;;;;;;15.30;73.10;;;;;;4161677;28;19905;-89
2022/07/09 03:33:53;;;;;;;;;;;15.30;73.20;;;;;;4160726;28;19905;-92
2022/07/09 03:36:15;;;;;;;;;;;15.40;73.60;;;;;;4159483;28;20360;-91
2022/07/09 03:38:35;;;;;;;;;;;15.40;73.40;;;;;;4154448;28;19913;-90
2022/07/09 03:40:56;;;;;;;;;;;15.40;73.30;;;;;;4150918;28;19962;-92
2022/07/09 03:43:17;;;;;;;;;;;15.40;73.30;;;;;;4163037;28;19932;-90
2022/07/09 03:45:38;;;;;;;;;;;15.40;73.40;;;;;;4165589;28;20289;-91
2022/07/09 03:47:59;;;;;;;;;;;15.40;73.60;;;;;;4169309;28;19961;-90
2022/07/09 03:50:20;;;;;;;;;;;15.40;73.50;;;;;;4168231;28;19911;-91
2022/07/09 03:52:41;;;;;;;;;;;15.40;73.60;;;;;;4162853;28;20006;-89
2022/07/09 03:55:02;;;;;;;;;;;15.40;74.10;;;;;;4175221;28;19905;-88
2022/07/09 03:57:23;;;;;;;;;;;15.40;73.70;;;;;;4159940;28;19913;-89
2022/07/09 03:59:44;;;;;;;;;;;15.40;73.70;;;;;;4169367;28;19913;-90
2022/07/09 04:02:05;;;;;;;;;;;15.40;73.60;;;;;;4155410;28;19956;-91
2022/07/09 04:04:28;;;;;;;;;;;15.40;73.70;;;;;;4165790;28;20385;-90
2022/07/09 04:06:49;;;;;;;;;;;15.40;73.70;;;;;;4161633;28;19959;-91
2022/07/09 04:09:13;;;;;;;;;;;15.40;73.60;;;;;;4175879;28;19951;-90
2022/07/09 04:11:34;;;;;;;;;;;15.40;73.60;;;;;;4171779;28;19995;-90
2022/07/09 04:13:55;;;;;;;;;;;15.40;73.60;;;;;;4171523;28;20254;-89
2022/07/09 04:16:16;;;;;;;;;;;15.50;73.80;;;;;;4174889;28;19909;-91
2022/07/09 04:18:37;;;;;;;;;;;15.50;73.80;;;;;;4152930;28;19940;-89
2022/07/09 04:20:58;;;;;;;;;;;15.50;74.00;;;;;;4157175;28;19992;-90
2022/07/09 04:23:19;;;;;;;;;;;15.50;74.00;;;;;;4168812;28;19987;-90
2022/07/09 04:25:39;;;;;;;;;;;15.50;74.20;;;;;;4163452;28;19909;-91
2022/07/09 04:28:01;;;;;;;;;;;15.50;74.40;;;;;;4172248;28;20003;-90
2022/07/09 04:30:22;;;;;;;;;;;15.50;74.30;;;;;;4163894;28;19914;-93
2022/07/09 04:32:43;;;;;;;;;;;15.60;74.80;;;;;;4160414;28;19969;-90
2022/07/09 04:35:04;;;;;;;;;;;15.60;75.10;;;;;;4163086;28;20204;-89
2022/07/09 04:37:25;;;;;;;;;;;15.60;74.70;;;;;;4159503;28;20288;-90
2022/07/09 04:39:45;;;;;;;;;;;15.60;75.10;;;;;;4166439;28;19995;-91
2022/07/09 04:42:06;;;;;;;;;;;15.70;74.90;;;;;;4171715;28;19915;-92
2022/07/09 04:44:27;;;;;;;;;;;15.70;75.20;;;;;;4181242;28;20055;-92
2022/07/09 04:46:54;;;;;;;;;;;15.70;75.20;;;;;;4169767;28;20381;-93
2022/07/09 04:49:18;;;;;;;;;;;15.70;75.00;;;;;;4174232;28;19915;-92
2022/07/09 04:51:39;;;;;;;;;;;15.80;75.00;;;;;;4156489;28;19909;-89
2022/07/09 04:54:02;;;;;;;;;;;15.80;74.80;;;;;;4155099;28;19905;-93
2022/07/09 04:56:26;;;;;;;;;;;15.80;74.60;;;;;;4160052;28;19983;-93
2022/07/09 04:58:53;;;;;;;;;;;15.80;74.60;;;;;;4169470;28;19915;-93
2022/07/09 05:01:35;;;;;;;;;;;15.80;74.90;;;;;;4161198;28;20293;-92
2022/07/09 05:03:56;;;;;;;;;;;15.80;74.70;;;;;;4166752;28;20015;-91
2022/07/09 05:06:17;;;;;;;;;;;15.80;74.50;;;;;;4162098;28;19909;-90
2022/07/09 05:08:39;;;;;;;;;;;15.80;74.90;;;;;;4172440;28;19913;-92
2022/07/09 05:11:16;;;;;;;;;;;15.80;74.90;;;;;;4167760;23;19920;-85
2022/07/09 05:13:42;;;;;;;;;;;15.80;74.60;;;;;;4194534;28;19915;-85
2022/07/09 05:16:03;;;;;;;;;;;15.80;75.20;;;;;;4195115;28;19908;-85
2022/07/09 05:18:24;;;;;;;;;;;15.80;74.90;;;;;;4201336;28;19912;-87
2022/07/09 05:20:45;;;;;;;;;;;15.80;75.00;;;;;;4177711;28;19909;-84
2022/07/09 05:23:06;;;;;;;;;;;15.90;75.30;;;;;;4195383;28;19955;-85
2022/07/09 05:25:39;;;;;;;;;;;15.90;75.10;;;;;;4192452;28;19912;-84
2022/07/09 05:28:00;;;;;;;;;;;15.90;75.80;;;;;;4201517;28;19965;-85
2022/07/09 05:30:21;;;;;;;;;;;15.90;75.60;;;;;;4178914;28;19905;-85
2022/07/09 05:32:44;;;;;;;;;;;16.00;75.80;;;;;;4173163;28;19919;-85
2022/07/09 05:35:05;;;;;;;;;;;16.00;75.80;;;;;;4195284;28;19935;-86
2022/07/09 05:37:26;;;;;;;;;;;16.00;75.50;;;;;;4200665;28;19904;-85
2022/07/09 05:39:47;;;;;;;;;;;16.10;75.70;;;;;;4191307;28;19919;-84
2022/07/09 05:42:08;;;;;;;;;;;16.10;75.60;;;;;;4195454;28;19947;-85
2022/07/09 05:44:29;;;;;;;;;;;16.10;75.50;;;;;;4200412;28;19908;-86
2022/07/09 05:46:49;;;;;;;;;;;16.20;75.10;;;;;;4175253;28;19909;-85
2022/07/09 05:49:10;;;;;;;;;;;16.20;75.00;;;;;;4198861;28;19953;-86
2022/07/09 05:51:31;;;;;;;;;;;16.20;74.80;;;;;;4189556;28;20452;-86
2022/07/09 05:53:52;;;;;;;;;;;16.20;74.60;;;;;;4177415;28;19908;-86
2022/07/09 05:56:13;;;;;;;;;;;16.20;74.50;;;;;;4201206;28;19961;-86
2022/07/09 05:58:33;;;;;;;;;;;16.20;74.40;;;;;;4178816;28;20421;-86
2022/07/09 06:00:54;;;;;;;;;;;16.30;74.50;;;;;;4187305;28;19927;-85
2022/07/09 06:03:15;;;;;;;;;;;16.30;74.80;;;;;;4191589;28;19913;-86
2022/07/09 06:05:36;;;;;;;;;;;16.30;74.50;;;;;;4180066;28;19915;-86
2022/07/09 06:07:57;;;;;;;;;;;16.30;74.50;;;;;;4198475;28;19912;-88
2022/07/09 06:10:18;;;;;;;;;;;16.40;74.40;;;;;;4194919;28;19912;-86
2022/07/09 06:12:39;;;;;;;;;;;16.50;74.30;;;;;;4183707;28;20003;-86
2022/07/09 06:15:00;;;;;;;;;;;16.50;74.10;;;;;;4186729;28;20285;-86
2022/07/09 06:17:21;;;;;;;;;;;16.50;73.80;;;;;;4197910;28;20506;-85
2022/07/09 06:19:42;;;;;;;;;;;16.50;73.50;;;;;;4199094;28;19905;-86
2022/07/09 06:22:03;;;;;;;;;;;16.50;73.30;;;;;;4194257;28;20290;-85
2022/07/09 06:24:24;;;;;;;;;;;16.50;73.30;;;;;;4193745;28;19908;-86
2022/07/09 06:26:46;;;;;;;;;;;16.50;73.20;;;;;;4181855;28;20019;-86
2022/07/09 06:29:07;;;;;;;;;;;16.50;73.10;;;;;;4181540;28;19924;-86
2022/07/09 06:31:28;;;;;;;;;;;16.60;73.00;;;;;;4189034;28;19912;-86
2022/07/09 06:33:49;;;;;;;;;;;16.60;72.80;;;;;;4198629;28;19904;-86
2022/07/09 06:36:10;;;;;;;;;;;16.60;72.80;;;;;;4197402;28;19927;-85
2022/07/09 06:38:30;;;;;;;;;;;16.70;71.90;;;;;;4190470;28;19912;-85
2022/07/09 06:40:53;;;;;;;;;;;16.70;71.70;;;;;;4183910;28;19909;-87
2022/07/09 06:43:14;;;;;;;;;;;16.70;70.90;;;;;;4191377;28;19909;-85
2022/07/09 06:45:36;;;;;;;;;;;16.80;70.90;;;;;;4185596;28;19911;-86
2022/07/09 06:47:56;;;;;;;;;;;16.80;70.30;;;;;;4192545;28;19998;-87
2022/07/09 06:50:17;;;;;;;;;;;16.90;69.60;;;;;;4192445;28;19907;-85
2022/07/09 06:52:38;;;;;;;;;;;16.90;69.60;;;;;;4168848;28;19912;-84
2022/07/09 06:54:59;;;;;;;;;;;17.00;70.10;;;;;;4190660;28;19982;-86
2022/07/09 06:57:23;;;;;;;;;;;17.10;69.90;;;;;;4182142;28;19912;-87
2022/07/09 06:59:45;;;;;;;;;;;17.10;69.60;;;;;;4192946;28;19947;-86
2022/07/09 07:02:06;;;;;;;;;;;17.20;69.40;;;;;;4187316;28;19923;-86
2022/07/09 07:04:27;;;;;;;;;;;17.20;69.20;;;;;;4195224;28;20386;-85
2022/07/09 07:06:48;;;;;;;;;;;17.30;69.00;;;;;;4187887;28;19916;-87
2022/07/09 07:09:09;;;;;;;;;;;17.30;68.50;;;;;;4174795;28;19905;-87
2022/07/09 07:11:30;;;;;;;;;;;17.40;68.20;;;;;;4199086;28;19923;-86
2022/07/09 07:13:51;;;;;;;;;;;17.40;68.20;;;;;;4191673;28;19912;-86
2022/07/09 07:16:12;;;;;;;;;;;17.40;67.50;;;;;;4203488;28;19925;-85
2022/07/09 07:18:33;;;;;;;;;;;17.40;67.30;;;;;;4179207;28;20657;-87
2022/07/09 07:20:54;;;;;;;;;;;17.40;66.60;;;;;;4177351;28;19933;-83
2022/07/09 07:23:15;;;;;;;;;;;17.50;66.50;;;;;;4195057;28;19912;-84
2022/07/09 07:25:36;;;;;;;;;;;17.40;65.50;;;;;;4187015;28;19901;-84
2022/07/09 07:27:58;;;;;;;;;;;17.40;65.70;;;;;;4203315;28;20257;-84
2022/07/09 07:30:18;;;;;;;;;;;17.40;65.10;;;;;;4190559;28;20358;-85
2022/07/09 07:32:39;;;;;;;;;;;17.40;64.60;;;;;;4177871;28;19913;-85
2022/07/09 07:35:02;;;;;;;;;;;17.30;63.60;;;;;;4201660;28;19904;-84
2022/07/09 07:37:23;;;;;;;;;;;17.30;64.00;;;;;;4203088;28;19904;-84
2022/07/09 07:39:44;;;;;;;;;;;17.20;63.70;;;;;;4183984;28;19909;-84
2022/07/09 07:42:07;;;;;;;;;;;17.20;63.60;;;;;;4179947;28;20428;-84
2022/07/09 07:44:28;;;;;;;;;;;17.20;62.80;;;;;;4195703;28;19916;-85
2022/07/09 07:46:49;;;;;;;;;;;17.20;62.90;;;;;;4199342;28;19904;-86
2022/07/09 07:49:13;;;;;;;;;;;17.10;63.80;;;;;;4207861;28;19904;-86
2022/07/09 07:51:34;;;;;;;;;;;17.20;64.10;;;;;;4187330;28;20366;-85
2022/07/09 07:53:55;;;;;;;;;;;17.20;64.00;;;;;;4180942;28;19911;-85
2022/07/09 07:56:16;;;;;;;;;;;17.20;64.00;;;;;;4192572;28;20003;-85
2022/07/09 07:58:37;;;;;;;;;;;17.30;64.50;;;;;;4181308;28;19922;-86
2022/07/09 08:00:58;;;;;;;;;;;17.40;63.80;;;;;;4178036;28;20493;-85
2022/07/09 08:03:19;;;;;;;;;;;17.40;64.00;;;;;;4188184;28;19919;-84
2022/07/09 08:05:40;;;;;;;;;;;17.50;61.60;;;;;;4204002;28;20492;-85
2022/07/09 08:08:01;;;;;;;;;;;17.50;61.50;;;;;;4182071;28;20381;-84
2022/07/09 08:10:23;;;;;;;;;;;17.50;61.00;;;;;;4182572;28;19912;-85
2022/07/09 08:12:43;;;;;;;;;;;17.50;61.50;;;;;;4179002;28;19909;-85
2022/07/09 08:15:04;;;;;;;;;;;17.50;61.70;;;;;;4205835;28;19910;-85
2022/07/09 08:17:25;;;;;;;;;;;17.50;61.50;;;;;;4199602;28;19908;-84
2022/07/09 08:19:46;;;;;;;;;;;17.50;61.50;;;;;;4183494;28;19936;-85
2022/07/09 08:22:07;;;;;;;;;;;17.50;61.30;;;;;;4200467;28;20030;-85
2022/07/09 08:24:28;;;;;;;;;;;17.50;60.80;;;;;;4187357;28;20390;-85
2022/07/09 08:26:49;;;;;;;;;;;17.50;60.60;;;;;;4192485;28;19905;-85
2022/07/09 08:29:09;;;;;;;;;;;17.60;59.70;;;;;;4195683;28;19947;-85
2022/07/09 08:31:38;;;;;;;;;;;17.60;59.50;;;;;;4180067;28;20000;-83
2022/07/09 08:34:12;;;;;;;;;;;17.70;59.50;;;;;;4187462;28;19957;-86
2022/07/09 08:36:33;;;;;;;;;;;17.70;59.60;;;;;;4187313;28;19909;-85
2022/07/09 08:38:54;;;;;;;;;;;17.70;59.10;;;;;;4183213;28;20574;-83
2022/07/09 08:41:19;;;;;;;;;;;17.80;59.00;;;;;;4186056;28;19905;-84
2022/07/09 08:43:40;;;;;;;;;;;17.80;59.20;;;;;;4184101;28;19905;-83
2022/07/09 08:46:01;;;;;;;;;;;17.80;58.80;;;;;;4175214;28;19908;-84
2022/07/09 08:48:22;;;;;;;;;;;17.80;58.60;;;;;;4183547;28;20267;-83
2022/07/09 08:50:42;;;;;;;;;;;17.80;58.50;;;;;;4197055;28;20042;-84
2022/07/09 08:53:04;;;;;;;;;;;17.80;57.80;;;;;;4199658;28;19905;-83
2022/07/09 08:55:26;;;;;;;;;;;17.80;57.10;;;;;;4194964;28;20373;-83
2022/07/09 08:57:50;;;;;;;;;;;17.80;56.60;;;;;;4179588;28;19909;-86
2022/07/09 09:00:11;;;;;;;;;;;17.80;56.10;;;;;;4193573;28;19909;-85
2022/07/09 09:02:38;;;;;;;;;;;17.80;55.80;;;;;;4194508;28;19909;-87
2022/07/09 09:04:59;;;;;;;;;;;17.80;55.30;;;;;;4195738;28;19931;-82
2022/07/09 09:07:21;;;;;;;;;;;17.90;55.30;;;;;;4195543;28;19908;-84
2022/07/09 09:09:42;;;;;;;;;;;17.90;55.30;;;;;;4194159;28;19962;-83
2022/07/09 09:12:03;;;;;;;;;;;17.90;54.70;;;;;;4185517;28;20000;-84
2022/07/09 09:14:25;;;;;;;;;;;17.80;54.90;;;;;;4187992;28;19896;-85
2022/07/09 09:16:48;;;;;;;;;;;17.80;55.70;;;;;;4200859;28;19912;-84
2022/07/09 09:19:09;;;;;;;;;;;17.80;55.90;;;;;;4187400;28;19954;-84
2022/07/09 09:21:30;;;;;;;;;;;17.90;56.00;;;;;;4182957;28;20585;-83
2022/07/09 09:23:55;;;;;;;;;;;17.90;55.40;;;;;;4189444;28;19924;-84
2022/07/09 09:26:15;;;;;;;;;;;17.90;55.00;;;;;;4196687;28;19908;-84
2022/07/09 09:28:52;;;;;;;;;;;17.90;53.70;;;;;;4178947;28;19913;-85
2022/07/09 09:31:19;;;;;;;;;;;18.00;53.80;;;;;;4196511;28;19915;-84
2022/07/09 09:33:39;;;;;;;;;;;18.00;53.60;;;;;;4186962;28;19905;-85
2022/07/09 09:36:00;;;;;;;;;;;18.00;54.30;;;;;;4196085;28;19908;-85
2022/07/09 09:38:22;;;;;;;;;;;18.10;53.50;;;;;;4187297;28;19913;-85
2022/07/09 09:40:46;;;;;;;;;;;18.10;52.30;;;;;;4182861;28;19908;-84
2022/07/09 09:43:08;;;;;;;;;;;18.20;51.60;;;;;;4181676;28;19995;-84
2022/07/09 09:45:29;;;;;;;;;;;18.20;50.50;;;;;;4185457;28;20282;-84
2022/07/09 09:47:51;;;;;;;;;;;18.20;50.40;;;;;;4187643;28;19919;-85
2022/07/09 09:50:15;;;;;;;;;;;18.30;51.30;;;;;;4194828;28;19908;-86
2022/07/09 09:52:37;;;;;;;;;;;18.30;50.90;;;;;;4194851;28;20366;-83
2022/07/09 09:54:58;;;;;;;;;;;18.40;50.80;;;;;;4196873;28;19908;-84
2022/07/09 09:57:20;;;;;;;;;;;18.50;50.70;;;;;;4190786;28;19915;-84
2022/07/09 09:59:42;;;;;;;;;;;18.50;49.00;;;;;;4173957;28;20311;-85
2022/07/09 10:02:09;;;;;;;;;;;18.60;49.70;;;;;;4186319;28;20021;-84
2022/07/09 10:04:29;;;;;;;;;;;18.60;49.10;;;;;;4192282;28;19916;-83
2022/07/09 10:06:50;;;;;;;;;;;18.60;48.30;;;;;;4180891;28;19905;-84
2022/07/09 10:09:12;;;;;;;;;;;18.60;49.20;;;;;;4201756;28;19907;-84
2022/07/09 10:11:46;;;;;;;;;;;18.60;49.70;;;;;;4189499;28;20043;-84
2022/07/09 10:14:07;;;;;;;;;;;18.60;49.80;;;;;;4195524;28;19908;-84
2022/07/09 10:16:32;;;;;;;;;;;18.50;48.90;;;;;;4176769;28;19962;-86
2022/07/09 10:18:53;;;;;;;;;;;18.60;50.00;;;;;;4184491;28;19909;-86
2022/07/09 10:21:14;;;;;;;;;;;18.60;50.50;;;;;;4180635;28;19931;-88
2022/07/09 10:23:48;;;;;;;;;;;18.70;50.40;;;;;;4174836;28;19916;-84
2022/07/09 10:26:08;;;;;;;;;;;18.70;49.60;;;;;;4194158;28;19904;-85
2022/07/09 10:28:39;;;;;;;;;;;18.80;50.10;;;;;;4173570;28;19959;-86
2022/07/09 10:31:06;;;;;;;;;;;18.90;50.00;;;;;;4181492;28;19908;-85
2022/07/09 10:33:33;;;;;;;;;;;18.90;48.90;;;;;;4196507;28;19912;-84
2022/07/09 10:35:57;;;;;;;;;;;18.90;48.90;;;;;;4177808;28;19911;-88
2022/07/09 10:38:29;;;;;;;;;;;19.00;49.40;;;;;;4174835;28;19912;-85
2022/07/09 10:40:57;;;;;;;;;;;19.00;49.30;;;;;;4180379;28;19963;-83
2022/07/09 10:43:18;;;;;;;;;;;19.10;49.10;;;;;;4180167;28;19909;-84
2022/07/09 10:45:49;;;;;;;;;;;19.10;49.20;;;;;;4183871;28;19909;-86
2022/07/09 10:48:11;;;;;;;;;;;19.20;49.90;;;;;;4181459;28;19908;-86
2022/07/09 10:50:33;;;;;;;;;;;19.30;49.70;;;;;;4177867;28;19905;-84
2022/07/09 10:52:54;;;;;;;;;;;19.30;50.70;;;;;;4193895;28;19913;-84
2022/07/09 10:55:15;;;;;;;;;;;19.40;50.10;;;;;;4192214;28;19919;-84
2022/07/09 10:57:36;;;;;;;;;;;19.50;49.60;;;;;;4171789;28;20413;-85
2022/07/09 10:59:57;;;;;;;;;;;19.50;50.00;;;;;;4194704;28;19908;-85
2022/07/09 11:02:22;;;;;;;;;;;19.40;49.50;;;;;;4185869;28;19904;-84
2022/07/09 11:04:47;;;;;;;;;;;19.50;49.00;;;;;;4191227;28;20641;-84
2022/07/09 11:07:10;;;;;;;;;;;19.50;49.40;;;;;;4197540;28;19956;-82
2022/07/09 11:09:31;;;;;;;;;;;19.50;49.00;;;;;;4175597;28;20012;-85
2022/07/09 11:11:52;;;;;;;;;;;19.50;48.20;;;;;;4175039;28;19917;-85
2022/07/09 11:14:13;;;;;;;;;;;19.50;48.40;;;;;;4188418;28;19943;-83
2022/07/09 11:16:40;;;;;;;;;;;19.40;48.10;;;;;;4191635;28;19912;-84
2022/07/09 11:19:17;;;;;;;;;;;19.40;47.90;;;;;;4199127;28;19950;-88
2022/07/09 11:21:38;;;;;;;;;;;19.40;46.90;;;;;;4190805;28;19995;-86
2022/07/09 11:23:58;;;;;;;;;;;19.30;47.40;;;;;;4197544;28;19984;-84
2022/07/09 11:26:19;;;;;;;;;;;19.30;47.50;;;;;;4188270;28;19905;-82
2022/07/09 11:28:40;;;;;;;;;;;19.20;47.20;;;;;;4175378;28;19960;-83
2022/07/09 11:31:02;;;;;;;;;;;19.10;48.70;;;;;;4189087;28;19915;-85
2022/07/09 11:33:24;;;;;;;;;;;19.00;49.30;;;;;;4180822;28;20403;-83
2022/07/09 11:35:45;;;;;;;;;;;18.90;49.10;;;;;;4188556;28;19905;-84
2022/07/09 11:38:09;;;;;;;;;;;18.80;49.60;;;;;;4184553;28;19963;-84
2022/07/09 11:40:30;;;;;;;;;;;18.70;49.90;;;;;;4201940;28;19908;-83
2022/07/09 11:42:51;;;;;;;;;;;18.70;49.10;;;;;;4195098;28;19921;-83
2022/07/09 11:45:12;;;;;;;;;;;18.60;49.60;;;;;;4180400;28;19983;-83
2022/07/09 11:47:34;;;;;;;;;;;18.50;49.90;;;;;;4188321;28;19912;-84
2022/07/09 11:50:03;;;;;;;;;;;18.40;50.20;;;;;;4185679;28;19908;-85
2022/07/09 11:52:25;;;;;;;;;;;18.30;49.60;;;;;;4177068;28;20391;-84
2022/07/09 11:54:55;;;;;;;;;;;18.30;49.70;;;;;;4184452;28;19919;-84
2022/07/09 11:57:24;;;;;;;;;;;18.30;49.50;;;;;;4200948;28;19912;-84
2022/07/09 11:59:48;;;;;;;;;;;18.20;49.20;;;;;;4193784;28;19905;-84
2022/07/09 12:02:08;;;;;;;;;;;18.10;49.50;;;;;;4191313;28;19908;-86
2022/07/09 12:04:30;;;;;;;;;;;18.10;49.40;;;;;;4187205;28;19904;-85
2022/07/09 12:06:53;;;;;;;;;;;18.00;49.30;;;;;;4192233;28;19962;-84
2022/07/09 12:09:16;;;;;;;;;;;18.00;49.70;;;;;;4207058;28;19932;-83
2022/07/09 12:11:37;;;;;;;;;;;17.90;48.70;;;;;;4192808;28;19995;-86
2022/07/09 12:13:58;;;;;;;;;;;17.90;48.70;;;;;;4187054;28;19915;-83
2022/07/09 12:16:18;;;;;;;;;;;17.80;48.60;;;;;;4196000;28;19913;-82
2022/07/09 12:18:39;;;;;;;;;;;17.80;48.90;;;;;;4178844;28;19913;-83
2022/07/09 12:21:00;;;;;;;;;;;17.70;49.60;;;;;;4183739;28;19979;-83
2022/07/09 12:23:21;;;;;;;;;;;17.70;49.10;;;;;;4201214;28;19908;-85
2022/07/09 12:25:42;;;;;;;;;;;17.70;49.20;;;;;;4191919;28;20332;-84
2022/07/09 12:28:03;;;;;;;;;;;17.60;49.30;;;;;;4188161;28;19917;-83
2022/07/09 12:30:24;;;;;;;;;;;17.70;49.40;;;;;;4195925;28;20374;-84
2022/07/09 12:32:45;;;;;;;;;;;17.60;49.20;;;;;;4198712;28;20000;-82
2022/07/09 12:35:06;;;;;;;;;;;17.60;49.20;;;;;;4192946;28;19990;-85
2022/07/09 12:37:29;;;;;;;;;;;17.70;49.70;;;;;;4185566;28;19939;-86
2022/07/09 12:39:53;;;;;;;;;;;17.60;50.10;;;;;;4198450;28;20294;-84
2022/07/09 12:42:14;;;;;;;;;;;17.60;49.50;;;;;;4197254;28;19922;-85
2022/07/09 12:44:36;;;;;;;;;;;17.70;50.00;;;;;;4199443;28;19918;-85
2022/07/09 12:46:57;;;;;;;;;;;17.70;50.50;;;;;;4188121;28;19919;-82
2022/07/09 12:49:20;;;;;;;;;;;17.70;50.80;;;;;;4189191;28;19912;-84
2022/07/09 12:51:41;;;;;;;;;;;17.70;50.40;;;;;;4196435;28;19934;-84
2022/07/09 12:54:02;;;;;;;;;;;17.70;49.90;;;;;;4185172;28;19964;-83
2022/07/09 12:56:23;;;;;;;;;;;17.70;50.00;;;;;;4196285;28;20393;-86
2022/07/09 12:58:44;;;;;;;;;;;17.60;50.20;;;;;;4174096;28;19909;-84
2022/07/09 13:01:05;;;;;;;;;;;17.70;51.20;;;;;;4182139;28;19905;-84
2022/07/09 13:03:32;;;;;;;;;;;17.70;51.60;;;;;;4183185;28;19905;-85
2022/07/09 13:06:01;;;;;;;;;;;17.80;51.60;;;;;;4181752;28;20121;-82
2022/07/09 13:08:21;;;;;;;;;;;17.80;51.60;;;;;;4201185;28;19912;-88
2022/07/09 13:10:42;;;;;;;;;;;17.80;51.80;;;;;;4184956;28;19924;-83
2022/07/09 13:13:03;;;;;;;;;;;17.80;51.90;;;;;;4177509;28;19909;-84
2022/07/09 13:15:24;;;;;;;;;;;17.80;51.80;;;;;;4199089;28;19905;-85
2022/07/09 13:20:42;;;;;;;;;;;17.70;51.70;;;;;;4094737;28;19910;-83
2022/07/09 13:23:02;;;;;;;;;;;17.60;51.50;;;;;;4095537;28;19925;-84
2022/07/09 13:25:23;;;;;;;;;;;17.50;50.80;;;;;;4084321;29;19907;-85
2022/07/09 13:27:44;;;;;;;;;;;17.40;50.40;;;;;;4099776;28;20284;-85
2022/07/09 13:30:06;;;;;;;;;;;17.40;50.60;;;;;;4093836;28;19911;-83
2022/07/09 13:32:27;;;;;;;;;;;17.40;50.30;;;;;;4100269;28;19906;-85
2022/07/09 13:34:54;;;;;;;;;;;17.30;50.40;;;;;;4094281;28;19918;-88
2022/07/09 13:37:20;;;;;;;;;;;17.30;50.80;;;;;;4094192;28;19937;-87
2022/07/09 13:39:41;;;;;;;;;;;17.30;50.70;;;;;;4098912;28;19911;-84
2022/07/09 13:42:02;;;;;;;;;;;17.30;51.10;;;;;;4095788;28;19907;-85
2022/07/09 13:44:23;;;;;;;;;;;17.30;51.60;;;;;;4095071;28;19965;-84
2022/07/09 13:46:44;;;;;;;;;;;17.30;51.80;;;;;;4094561;28;19910;-85
2022/07/09 13:49:05;;;;;;;;;;;17.30;52.30;;;;;;4081801;29;19914;-85
2022/07/09 13:51:26;;;;;;;;;;;17.30;52.20;;;;;;4120555;28;20649;-85
2022/07/09 13:53:46;;;;;;;;;;;17.20;51.40;;;;;;4136559;28;19910;-85
2022/07/09 13:56:07;;;;;;;;;;;17.20;51.60;;;;;;4130232;28;19918;-84